createdAt,value
2022-11-26T00:00:57.537Z,37.70
2022-11-26T00:02:14.933Z,25.00
2022-11-26T00:03:17.440Z,29.55
2022-11-26T00:04:19.095Z,39.25
2022-11-26T00:05:22.288Z,35.00
2022-11-26T00:06:40.513Z,32.22
2022-11-26T00:07:44.880Z,42.88
2022-11-26T00:08:46.570Z,29.40
2022-11-26T00:09:49.653Z,34.00
2022-11-26T00:10:53.388Z,37.25
2022-11-26T00:11:54.964Z,24.65
2022-11-26T00:12:57.583Z,44.53
2022-11-26T00:13:59.159Z,26.33
2022-11-26T00:15:14.660Z,32.38
2022-11-26T00:16:16.620Z,34.38
2022-11-26T00:17:19.774Z,39.72
2022-11-26T00:18:26.844Z,27.50
2022-11-26T00:19:28.571Z,34.65
2022-11-26T00:20:31.380Z,29.45
2022-11-26T00:21:36.074Z,29.60
2022-11-26T00:22:51.455Z,25.55
2022-11-26T00:23:54.321Z,35.63
2022-11-26T00:24:56.311Z,27.67
2022-11-26T00:26:01.390Z,28.92
2022-11-26T00:27:02.965Z,27.85
2022-11-26T00:28:22.894Z,25.83
2022-11-26T00:29:24.465Z,31.00
2022-11-26T00:30:28.002Z,25.83
2022-11-26T00:31:29.655Z,29.52
2022-11-26T00:32:31.516Z,30.08
2022-11-26T00:33:33.685Z,26.42
2022-11-26T00:34:35.488Z,25.95
2022-11-26T00:35:37.292Z,35.92
2022-11-26T00:36:38.878Z,23.40
2022-11-26T00:37:44.573Z,25.60
2022-11-26T00:38:49.709Z,21.67
2022-11-26T00:39:52.071Z,27.98
2022-11-26T00:40:53.722Z,34.25
2022-11-26T00:41:55.431Z,27.55
2022-11-26T00:43:01.452Z,28.40
2022-11-26T00:44:04.081Z,27.10
2022-11-26T00:45:15.532Z,26.73
2022-11-26T00:46:20.011Z,31.02
2022-11-26T00:47:21.609Z,30.13
2022-11-26T00:48:23.145Z,26.75
2022-11-26T00:49:24.763Z,27.70
2022-11-26T00:50:27.666Z,32.10
2022-11-26T00:51:29.385Z,34.33
2022-11-26T00:52:34.509Z,30.40
2022-11-26T00:53:36.153Z,27.35
2022-11-26T00:54:38.036Z,27.90
2022-11-26T00:57:22.756Z,23.08
2022-11-26T00:58:28.758Z,27.92
2022-11-26T00:59:30.328Z,24.17
2022-11-26T01:00:34.447Z,20.13
2022-11-26T01:01:37.589Z,22.95
2022-11-26T01:02:39.413Z,32.45
2022-11-26T01:03:43.003Z,35.05
2022-11-26T01:04:44.640Z,26.65
2022-11-26T01:05:53.270Z,26.48
2022-11-26T01:06:54.884Z,41.35
2022-11-26T01:08:00.327Z,24.05
2022-11-26T01:09:04.773Z,25.45
2022-11-26T01:10:14.320Z,28.60
2022-11-26T01:11:18.581Z,29.45
2022-11-26T01:12:20.164Z,30.63
2022-11-26T01:13:21.811Z,45.00
2022-11-26T01:14:23.568Z,28.73
2022-11-26T01:15:26.613Z,19.70
2022-11-26T01:16:30.892Z,22.77
2022-11-26T01:17:32.602Z,28.73
2022-11-26T01:18:35.165Z,25.45
2022-11-26T01:19:36.812Z,20.58
2022-11-26T01:20:38.358Z,22.60
2022-11-26T01:21:40.540Z,23.35
2022-11-26T01:22:42.103Z,24.50
2022-11-26T01:23:43.737Z,17.50
2022-11-26T01:24:45.512Z,15.90
2022-11-26T01:25:47.811Z,16.05
2022-11-26T01:26:49.406Z,17.90
2022-11-26T01:27:51.675Z,20.73
2022-11-26T01:28:54.405Z,20.20
2022-11-26T01:29:55.983Z,21.92
2022-11-26T01:30:57.802Z,20.55
2022-11-26T01:31:59.530Z,26.83
2022-11-26T01:33:01.239Z,23.85
2022-11-26T01:34:02.967Z,24.75
2022-11-26T01:35:05.014Z,19.23
2022-11-26T01:36:28.703Z,20.15
2022-11-26T01:37:30.276Z,16.38
2022-11-26T01:38:31.862Z,27.50
2022-11-26T01:39:33.405Z,18.90
2022-11-26T01:40:54.531Z,18.55
2022-11-26T01:42:36.313Z,24.02
2022-11-26T01:43:42.639Z,42.05
2022-11-26T01:44:44.408Z,27.02
2022-11-26T01:45:46.163Z,29.38
2022-11-26T01:46:48.852Z,19.70
2022-11-26T01:47:50.745Z,15.93
2022-11-26T01:48:53.798Z,24.08
2022-11-26T01:50:26.530Z,20.38
2022-11-26T01:51:29.115Z,31.05
2022-11-26T01:52:30.814Z,23.77
2022-11-26T01:53:38.835Z,35.75
2022-11-26T01:54:43.295Z,23.85
2022-11-26T01:55:44.844Z,29.48
2022-11-26T01:56:50.803Z,20.65
2022-11-26T01:57:52.797Z,17.92
2022-11-26T01:59:03.020Z,36.03
2022-11-26T02:00:05.470Z,24.45
2022-11-26T02:01:07.678Z,26.20
2022-11-26T02:02:09.876Z,23.33
2022-11-26T02:03:12.355Z,28.45
2022-11-26T02:04:20.041Z,25.50
2022-11-26T02:05:25.776Z,32.90
2022-11-26T02:06:33.463Z,30.05
2022-11-26T02:07:36.140Z,22.20
2022-11-26T02:08:38.434Z,28.52
2022-11-26T02:09:40.769Z,25.08
2022-11-26T02:10:42.547Z,25.08
2022-11-26T02:11:44.684Z,31.15
2022-11-26T02:12:46.248Z,24.00
2022-11-26T02:13:51.997Z,31.52
2022-11-26T02:14:54.215Z,36.65
2022-11-26T02:16:35.387Z,33.60
2022-11-26T02:17:46.162Z,34.40
2022-11-26T02:19:02.241Z,30.20
2022-11-26T02:20:21.920Z,30.75
2022-11-26T02:21:28.101Z,23.55
2022-11-26T02:22:51.438Z,23.45
2022-11-26T02:24:23.401Z,33.20
2022-11-26T02:25:57.425Z,27.58
2022-11-26T02:27:08.020Z,26.52
2022-11-26T02:28:15.877Z,28.83
2022-11-26T02:29:27.638Z,34.13
2022-11-26T02:30:36.386Z,40.20
2022-11-26T02:31:37.979Z,33.33
2022-11-26T02:33:11.569Z,24.33
2022-11-26T02:34:22.751Z,36.15
2022-11-26T02:35:39.193Z,23.63
2022-11-26T02:36:48.641Z,31.58
2022-11-26T02:38:02.756Z,37.63
2022-11-26T02:39:15.459Z,41.15
2022-11-26T02:40:17.492Z,19.75
2022-11-26T02:41:19.526Z,22.63
2022-11-26T02:42:34.070Z,39.65
2022-11-26T02:43:37.779Z,20.80
2022-11-26T02:44:43.141Z,23.67
2022-11-26T02:45:50.722Z,19.17
2022-11-26T02:47:02.838Z,22.52
2022-11-26T02:48:09.539Z,17.92
2022-11-26T02:49:14.494Z,27.40
2022-11-26T02:50:24.055Z,29.17
2022-11-26T02:51:31.989Z,29.80
2022-11-26T02:52:39.645Z,27.83
2022-11-26T02:53:43.157Z,32.97
2022-11-26T02:54:46.066Z,28.13
2022-11-26T02:56:01.282Z,26.90
2022-11-26T02:57:07.114Z,22.08
2022-11-26T02:58:08.935Z,19.35
2022-11-26T02:59:11.902Z,22.75
2022-11-26T03:00:15.745Z,36.03
2022-11-26T03:01:30.127Z,31.05
2022-11-26T03:02:36.609Z,28.00
2022-11-26T03:03:46.484Z,28.55
2022-11-26T03:04:53.124Z,25.30
2022-11-26T03:05:59.065Z,22.20
2022-11-26T03:07:04.493Z,30.25
2022-11-26T03:08:07.236Z,29.88
2022-11-26T03:09:09.008Z,35.70
2022-11-26T03:10:10.820Z,31.02
2022-11-26T03:11:12.672Z,42.40
2022-11-26T03:12:14.393Z,25.15
2022-11-26T03:13:16.008Z,22.85
2022-11-26T03:14:17.715Z,30.60
2022-11-26T03:15:19.520Z,25.65
2022-11-26T03:16:21.079Z,24.27
2022-11-26T03:17:22.869Z,25.15
2022-11-26T03:18:24.837Z,17.80
2022-11-26T03:19:26.507Z,34.03
2022-11-26T03:20:28.191Z,22.60
2022-11-26T03:21:32.008Z,32.80
2022-11-26T03:22:33.798Z,35.75
2022-11-26T03:23:35.615Z,31.50
2022-11-26T03:24:37.737Z,29.15
2022-11-26T03:25:39.519Z,24.10
2022-11-26T03:26:41.080Z,32.85
2022-11-26T03:27:42.658Z,20.27
2022-11-26T03:28:44.354Z,21.85
2022-11-26T03:29:45.998Z,25.27
2022-11-26T03:30:50.138Z,18.13
2022-11-26T03:31:51.989Z,24.38
2022-11-26T03:32:53.831Z,21.38
2022-11-26T03:33:55.434Z,20.88
2022-11-26T03:34:57.038Z,27.75
2022-11-26T03:35:58.602Z,29.08
2022-11-26T03:37:00.178Z,31.23
2022-11-26T03:38:01.875Z,27.20
2022-11-26T03:39:03.830Z,14.27
2022-11-26T03:40:07.043Z,22.95
2022-11-26T03:41:08.685Z,24.85
2022-11-26T03:42:10.253Z,26.63
2022-11-26T03:43:11.885Z,15.75
2022-11-26T03:44:14.369Z,13.50
2022-11-26T03:45:16.014Z,23.63
2022-11-26T03:46:17.909Z,23.50
2022-11-26T03:47:19.641Z,31.08
2022-11-26T03:48:21.518Z,32.13
2022-11-26T03:49:23.195Z,21.92
2022-11-26T03:50:24.757Z,30.13
2022-11-26T03:51:26.358Z,22.60
2022-11-26T03:52:27.977Z,19.50
2022-11-26T03:53:29.777Z,19.95
2022-11-26T03:54:31.415Z,18.23
2022-11-26T03:55:33.153Z,32.15
2022-11-26T03:56:34.754Z,36.33
2022-11-26T03:57:36.772Z,21.17
2022-11-26T03:58:38.379Z,37.38
2022-11-26T03:59:39.962Z,24.17
2022-11-26T04:00:41.698Z,21.10
2022-11-26T04:01:43.316Z,43.53
2022-11-26T04:02:45.050Z,29.10
2022-11-26T04:03:46.742Z,30.15
2022-11-26T04:04:48.509Z,27.60
2022-11-26T04:05:50.172Z,21.23
2022-11-26T04:06:51.871Z,36.35
2022-11-26T04:07:53.458Z,22.58
2022-11-26T04:08:55.137Z,23.83
2022-11-26T04:09:56.800Z,15.93
2022-11-26T04:10:58.333Z,25.73
2022-11-26T04:12:00.796Z,20.40
2022-11-26T04:13:02.365Z,18.27
2022-11-26T04:14:03.972Z,22.00
2022-11-26T04:15:06.074Z,33.08
2022-11-26T04:16:08.095Z,21.48
2022-11-26T04:17:09.669Z,30.58
2022-11-26T04:18:11.182Z,21.65
2022-11-26T04:19:12.828Z,21.98
2022-11-26T04:20:14.523Z,22.63
2022-11-26T04:21:16.107Z,31.15
2022-11-26T04:22:17.709Z,25.20
2022-11-26T04:23:19.899Z,18.10
2022-11-26T04:24:21.428Z,31.90
2022-11-26T04:25:23.060Z,22.10
2022-11-26T04:26:25.019Z,28.00
2022-11-26T04:27:26.565Z,15.35
2022-11-26T04:28:28.203Z,25.77
2022-11-26T04:29:29.819Z,17.15
2022-11-26T04:30:31.563Z,20.40
2022-11-26T04:31:33.220Z,26.67
2022-11-26T04:32:34.978Z,22.40
2022-11-26T04:33:36.580Z,28.02
2022-11-26T04:34:38.374Z,24.10
2022-11-26T04:35:40.218Z,19.25
2022-11-26T04:36:41.907Z,27.92
2022-11-26T04:37:43.628Z,21.73
2022-11-26T04:38:45.197Z,14.32
2022-11-26T04:39:46.798Z,21.83
2022-11-26T04:40:48.526Z,26.83
2022-11-26T04:41:51.033Z,19.77
2022-11-26T04:42:52.631Z,20.20
2022-11-26T04:43:54.203Z,23.35
2022-11-26T04:44:55.875Z,20.67
2022-11-26T04:45:57.527Z,27.17
2022-11-26T04:46:59.294Z,13.68
2022-11-26T04:48:00.865Z,25.25
2022-11-26T04:49:02.465Z,36.38
2022-11-26T04:50:04.463Z,24.35
2022-11-26T04:51:06.257Z,18.55
2022-11-26T04:52:08.241Z,28.23
2022-11-26T04:53:09.804Z,31.95
2022-11-26T04:54:13.204Z,24.02
2022-11-26T04:55:16.635Z,28.52
2022-11-26T04:56:18.249Z,29.63
2022-11-26T04:57:19.826Z,25.10
2022-11-26T04:58:21.961Z,25.67
2022-11-26T04:59:23.784Z,17.00
2022-11-26T05:00:25.718Z,21.92
2022-11-26T05:01:27.396Z,41.15
2022-11-26T05:02:29.203Z,26.52
2022-11-26T05:03:30.931Z,26.52
2022-11-26T05:04:32.565Z,33.55
2022-11-26T05:05:34.638Z,46.30
2022-11-26T05:06:36.303Z,37.00
2022-11-26T05:07:38.102Z,26.42
2022-11-26T05:08:39.690Z,24.48
2022-11-26T05:09:41.301Z,27.02
2022-11-26T05:10:42.991Z,36.97
2022-11-26T05:11:44.654Z,39.83
2022-11-26T05:12:46.346Z,40.45
2022-11-26T05:13:47.990Z,61.45
2022-11-26T05:14:49.576Z,47.55
2022-11-26T05:15:51.270Z,51.03
2022-11-26T05:16:52.926Z,45.00
2022-11-26T05:17:54.516Z,33.03
2022-11-26T05:18:56.419Z,29.25
2022-11-26T05:19:58.207Z,25.25
2022-11-26T05:20:59.830Z,27.65
2022-11-26T05:22:01.461Z,25.70
2022-11-26T05:23:03.278Z,28.20
2022-11-26T05:24:05.286Z,35.08
2022-11-26T05:25:07.207Z,31.63
2022-11-26T05:26:08.810Z,36.10
2022-11-26T05:27:10.346Z,26.17
2022-11-26T05:29:56.648Z,33.30
2022-11-26T05:30:59.965Z,31.65
2022-11-26T05:32:01.665Z,35.47
2022-11-26T05:33:03.467Z,49.67
2022-11-26T05:34:05.182Z,44.75
2022-11-26T05:35:07.069Z,33.42
2022-11-26T05:36:09.023Z,19.10
2022-11-26T05:37:10.725Z,27.48
2022-11-26T05:38:12.294Z,24.65
2022-11-26T05:39:13.853Z,23.42
2022-11-26T05:40:15.506Z,29.10
2022-11-26T05:41:17.080Z,36.42
2022-11-26T05:42:18.707Z,30.08
2022-11-26T05:43:20.346Z,37.35
2022-11-26T05:44:21.978Z,38.03
2022-11-26T05:45:23.565Z,40.10
2022-11-26T05:46:25.258Z,37.53
2022-11-26T05:47:26.846Z,30.42
2022-11-26T05:48:28.470Z,28.17
2022-11-26T05:49:30.259Z,27.88
2022-11-26T05:50:32.660Z,20.80
2022-11-26T05:51:34.457Z,32.30
2022-11-26T05:52:36.155Z,26.63
2022-11-26T05:53:37.956Z,26.17
2022-11-26T05:54:39.947Z,26.42
2022-11-26T05:55:41.710Z,42.35
2022-11-26T05:56:44.127Z,28.80
2022-11-26T05:57:45.784Z,42.40
2022-11-26T05:58:47.342Z,31.48
2022-11-26T05:59:51.821Z,47.42
2022-11-26T06:00:53.416Z,46.13
2022-11-26T06:01:55.307Z,41.90
2022-11-26T06:02:57.040Z,38.38
2022-11-26T06:03:58.772Z,42.22
2022-11-26T06:05:00.352Z,35.78
2022-11-26T06:06:02.607Z,32.80
2022-11-26T06:07:04.293Z,39.03
2022-11-26T06:08:07.029Z,30.92
2022-11-26T06:09:08.696Z,39.17
2022-11-26T06:10:10.925Z,31.88
2022-11-26T06:11:15.501Z,34.25
2022-11-26T06:12:17.153Z,26.42
2022-11-26T06:13:18.769Z,37.63
2022-11-26T06:14:20.417Z,34.63
2022-11-26T06:15:22.035Z,27.25
2022-11-26T06:16:23.712Z,35.05
2022-11-26T06:17:25.309Z,37.10
2022-11-26T06:18:27.048Z,25.08
2022-11-26T06:19:28.604Z,27.92
2022-11-26T06:20:30.236Z,28.95
2022-11-26T06:21:31.940Z,33.63
2022-11-26T06:22:41.890Z,24.88
2022-11-26T06:23:51.655Z,35.67
2022-11-26T06:24:56.133Z,32.13
2022-11-26T06:25:57.777Z,26.40
2022-11-26T06:26:59.435Z,47.50
2022-11-26T06:28:00.998Z,41.15
2022-11-26T06:29:03.026Z,43.55
2022-11-26T06:30:05.801Z,35.10
2022-11-26T06:31:10.026Z,49.72
2022-11-26T06:32:11.676Z,35.60
2022-11-26T06:33:13.613Z,37.95
2022-11-26T06:34:16.003Z,63.15
2022-11-26T06:35:17.619Z,39.22
2022-11-26T06:36:19.186Z,32.33
2022-11-26T06:37:20.919Z,37.10
2022-11-26T06:38:22.446Z,31.23
2022-11-26T06:39:24.035Z,32.35
2022-11-26T06:40:25.617Z,36.25
2022-11-26T06:41:27.172Z,43.30
2022-11-26T06:42:29.702Z,30.95
2022-11-26T06:43:32.150Z,34.33
2022-11-26T06:44:36.857Z,34.05
2022-11-26T06:45:38.719Z,45.47
2022-11-26T06:46:40.768Z,41.58
2022-11-26T06:47:42.409Z,37.45
2022-11-26T06:48:44.160Z,55.90
2022-11-26T06:49:46.050Z,48.13
2022-11-26T06:50:47.596Z,58.22
2022-11-26T06:51:49.176Z,61.45
2022-11-26T06:52:54.701Z,50.67
2022-11-26T06:53:56.332Z,46.25
2022-11-26T06:54:58.021Z,39.85
2022-11-26T06:56:01.125Z,40.72
2022-11-26T06:57:02.692Z,36.08
2022-11-26T06:58:04.299Z,36.95
2022-11-26T06:59:05.906Z,41.55
2022-11-26T07:00:08.245Z,60.50
2022-11-26T07:01:16.933Z,42.28
2022-11-26T07:02:18.510Z,54.58
2022-11-26T07:03:23.928Z,53.22
2022-11-26T07:04:27.184Z,42.50
2022-11-26T07:05:29.124Z,40.97
2022-11-26T07:06:32.919Z,27.55
2022-11-26T07:07:37.895Z,37.10
2022-11-26T07:08:39.498Z,26.98
2022-11-26T07:09:41.318Z,32.00
2022-11-26T07:10:48.680Z,30.65
2022-11-26T07:11:50.757Z,36.40
2022-11-26T07:12:52.321Z,56.88
2022-11-26T07:13:54.643Z,32.30
2022-11-26T07:14:56.195Z,55.08
2022-11-26T07:16:02.833Z,43.90
2022-11-26T07:17:04.656Z,52.58
2022-11-26T07:18:06.300Z,40.42
2022-11-26T07:19:11.753Z,38.58
2022-11-26T07:20:14.254Z,44.80
2022-11-26T07:21:15.922Z,35.53
2022-11-26T07:22:17.635Z,44.30
2022-11-26T07:23:19.235Z,42.80
2022-11-26T07:24:20.832Z,35.92
2022-11-26T07:25:22.439Z,34.58
2022-11-26T07:26:24.365Z,36.55
2022-11-26T07:27:25.945Z,45.65
2022-11-26T07:28:28.800Z,30.38
2022-11-26T07:29:30.551Z,38.83
2022-11-26T07:30:32.074Z,32.33
2022-11-26T07:31:33.945Z,31.42
2022-11-26T07:32:35.632Z,44.65
2022-11-26T07:33:37.564Z,48.88
2022-11-26T07:34:39.365Z,39.50
2022-11-26T07:35:41.190Z,37.78
2022-11-26T07:36:43.511Z,36.83
2022-11-26T07:37:45.222Z,28.75
2022-11-26T07:38:47.070Z,42.15
2022-11-26T07:39:49.516Z,29.58
2022-11-26T07:40:51.045Z,30.23
2022-11-26T07:41:52.623Z,40.80
2022-11-26T07:42:54.294Z,37.38
2022-11-26T07:43:56.122Z,46.47
2022-11-26T07:44:57.671Z,36.53
2022-11-26T07:46:01.958Z,35.08
2022-11-26T07:47:04.471Z,36.65
2022-11-26T07:48:06.411Z,42.30
2022-11-26T07:49:08.370Z,48.28
2022-11-26T07:50:10.415Z,48.35
2022-11-26T07:51:26.033Z,47.28
2022-11-26T07:52:27.633Z,65.07
2022-11-26T07:53:30.853Z,60.50
2022-11-26T07:54:32.472Z,50.25
2022-11-26T07:55:34.176Z,47.40
2022-11-26T07:56:36.151Z,49.38
2022-11-26T07:57:37.866Z,67.03
2022-11-26T07:58:39.564Z,47.03
2022-11-26T07:59:41.602Z,56.25
2022-11-26T08:00:43.342Z,53.38
2022-11-26T08:01:45.081Z,46.95
2022-11-26T08:02:47.041Z,47.00
2022-11-26T08:03:50.252Z,48.05
2022-11-26T08:04:51.923Z,52.20
2022-11-26T08:05:53.457Z,44.17
2022-11-26T08:06:55.007Z,40.22
2022-11-26T08:07:56.776Z,48.80
2022-11-26T08:09:00.299Z,37.28
2022-11-26T08:10:02.351Z,50.13
2022-11-26T08:11:11.285Z,52.13
2022-11-26T08:12:12.834Z,39.13
2022-11-26T08:13:14.401Z,39.42
2022-11-26T08:14:15.944Z,32.08
2022-11-26T08:15:17.954Z,25.08
2022-11-26T08:16:19.611Z,33.97
2022-11-26T08:17:21.529Z,39.00
2022-11-26T08:18:23.088Z,30.70
2022-11-26T08:19:24.782Z,27.38
2022-11-26T08:20:29.018Z,35.58
2022-11-26T08:21:31.000Z,25.08
2022-11-26T08:22:33.453Z,33.40
2022-11-26T08:23:35.465Z,24.17
2022-11-26T08:24:37.749Z,27.17
2022-11-26T08:25:59.236Z,27.35
2022-11-26T08:27:01.234Z,21.10
2022-11-26T08:28:02.850Z,31.25
2022-11-26T08:29:04.508Z,35.85
2022-11-26T08:30:07.307Z,32.35
2022-11-26T08:31:11.285Z,39.47
2022-11-26T08:32:13.053Z,42.53
2022-11-26T08:33:14.906Z,42.83
2022-11-26T08:34:17.595Z,46.85
2022-11-26T08:35:19.214Z,32.47
2022-11-26T08:36:20.837Z,38.13
2022-11-26T08:37:22.736Z,38.20
2022-11-26T08:38:25.092Z,44.80
2022-11-26T08:39:26.950Z,37.97
2022-11-26T08:40:28.453Z,37.78
2022-11-26T08:41:30.112Z,25.65
2022-11-26T08:42:31.727Z,33.17
2022-11-26T08:44:04.519Z,27.35
2022-11-26T08:44:57.088Z,27.55
2022-11-26T08:46:00.317Z,23.90
2022-11-26T08:47:01.971Z,21.52
2022-11-26T08:48:03.874Z,34.70
2022-11-26T08:49:07.362Z,28.08
2022-11-26T08:50:09.665Z,26.02
2022-11-26T08:51:12.557Z,22.42
2022-11-26T08:52:14.132Z,20.52
2022-11-26T08:53:15.722Z,28.80
2022-11-26T08:54:17.412Z,27.67
2022-11-26T08:55:23.699Z,22.58
2022-11-26T08:56:26.020Z,26.58
2022-11-26T08:57:27.728Z,26.17
2022-11-26T08:58:29.525Z,22.15
2022-11-26T08:59:31.170Z,23.17
2022-11-26T09:00:32.839Z,29.65
2022-11-26T09:01:34.978Z,36.78
2022-11-26T09:02:36.613Z,26.67
2022-11-26T09:03:39.067Z,34.08
2022-11-26T09:04:41.792Z,38.13
2022-11-26T09:05:43.427Z,46.35
2022-11-26T09:06:44.994Z,50.63
2022-11-26T09:07:49.161Z,44.78
2022-11-26T09:09:09.517Z,63.83
2022-11-26T09:10:11.614Z,58.22
2022-11-26T09:11:13.234Z,50.20
2022-11-26T09:12:14.856Z,62.20
2022-11-26T09:13:20.891Z,30.02
2022-11-26T09:14:25.103Z,30.60
2022-11-26T09:15:26.726Z,27.60
2022-11-26T09:16:28.863Z,28.05
2022-11-26T09:17:30.714Z,27.08
2022-11-26T09:18:32.301Z,34.83
2022-11-26T09:19:33.976Z,26.33
2022-11-26T09:20:35.545Z,37.65
2022-11-26T09:21:37.212Z,26.00
2022-11-26T09:22:39.018Z,21.38
2022-11-26T09:23:40.705Z,32.38
2022-11-26T09:24:42.392Z,23.77
2022-11-26T09:25:43.995Z,27.95
2022-11-26T09:26:45.971Z,29.92
2022-11-26T09:27:47.551Z,25.10
2022-11-26T09:28:49.436Z,38.95
2022-11-26T09:29:51.054Z,31.20
2022-11-26T09:30:57.758Z,32.67
2022-11-26T09:33:21.195Z,51.88
2022-11-26T09:34:23.298Z,51.70
2022-11-26T09:35:25.234Z,35.38
2022-11-26T09:36:27.395Z,25.27
2022-11-26T09:37:31.775Z,33.35
2022-11-26T09:38:34.335Z,25.35
2022-11-26T09:39:35.970Z,36.83
2022-11-26T09:40:54.065Z,20.08
2022-11-26T09:42:12.594Z,36.90
2022-11-26T09:43:28.200Z,25.17
2022-11-26T09:44:48.306Z,32.05
2022-11-26T09:45:55.775Z,24.83
2022-11-26T09:47:12.523Z,30.42
2022-11-26T09:48:20.176Z,42.55
2022-11-26T09:49:22.627Z,35.47
2022-11-26T09:50:28.893Z,36.80
2022-11-26T09:51:33.085Z,36.42
2022-11-26T09:53:08.952Z,38.15
2022-11-26T09:54:20.610Z,24.03
2022-11-26T09:55:31.967Z,28.07
2022-11-26T09:56:34.161Z,14.20
2022-11-26T09:57:42.013Z,23.70
2022-11-26T09:58:54.554Z,26.08
2022-11-26T09:59:56.636Z,25.20
2022-11-26T10:01:00.059Z,22.80
2022-11-26T10:02:01.827Z,19.27
2022-11-26T10:03:13.263Z,23.43
2022-11-26T10:04:24.373Z,24.87
2022-11-26T10:06:02.411Z,20.65
2022-11-26T10:07:22.346Z,27.30
2022-11-26T10:08:52.039Z,28.77
2022-11-26T10:10:12.660Z,39.53
2022-11-26T10:11:49.335Z,30.73
2022-11-26T10:13:18.387Z,16.55
2022-11-26T10:15:08.722Z,24.73
2022-11-26T10:16:27.479Z,19.20
2022-11-26T10:17:47.403Z,16.63
2022-11-26T10:19:07.550Z,18.67
2022-11-26T10:20:47.007Z,16.60
2022-11-26T10:22:00.136Z,20.23
2022-11-26T10:23:14.048Z,20.88
2022-11-26T10:24:36.177Z,16.83
2022-11-26T10:25:46.522Z,16.05
2022-11-26T10:26:49.488Z,22.60
2022-11-26T10:27:53.830Z,21.88
2022-11-26T10:29:19.936Z,29.40
2022-11-26T10:30:25.460Z,25.70
2022-11-26T10:31:31.245Z,32.43
2022-11-26T10:32:38.986Z,46.80
2022-11-26T10:34:04.933Z,27.23
2022-11-26T10:35:06.956Z,20.20
2022-11-26T10:36:23.193Z,24.23
2022-11-26T10:37:27.459Z,27.35
2022-11-26T10:38:29.154Z,21.77
2022-11-26T10:39:30.817Z,22.13
2022-11-26T10:40:32.671Z,21.23
2022-11-26T10:41:36.994Z,20.93
2022-11-26T10:42:44.445Z,26.57
2022-11-26T10:43:46.084Z,21.13
2022-11-26T10:44:50.280Z,20.47
2022-11-26T10:45:54.767Z,18.70
2022-11-26T10:46:57.962Z,25.73
2022-11-26T10:48:27.329Z,19.80
2022-11-26T10:49:29.955Z,26.23
2022-11-26T10:50:50.562Z,30.83
2022-11-26T10:51:57.862Z,22.53
2022-11-26T10:53:05.058Z,15.83
2022-11-26T10:54:18.648Z,22.70
2022-11-26T10:55:23.443Z,23.23
2022-11-26T10:56:46.844Z,22.60
2022-11-26T10:57:53.552Z,15.93
2022-11-26T10:59:01.951Z,26.50
2022-11-26T11:00:04.375Z,31.43
2022-11-26T11:01:07.297Z,27.63
2022-11-26T11:02:33.380Z,21.07
2022-11-26T11:05:10.284Z,25.67
2022-11-26T11:06:19.351Z,20.40
2022-11-26T11:07:34.598Z,24.87
2022-11-26T11:08:36.321Z,16.23
2022-11-26T11:09:38.319Z,16.77
2022-11-26T11:10:54.046Z,23.73
2022-11-26T11:12:16.476Z,13.93
2022-11-26T11:13:18.213Z,15.77
2022-11-26T11:14:29.158Z,19.60
2022-11-26T11:15:35.389Z,15.70
2022-11-26T11:16:46.034Z,11.57
2022-11-26T11:18:21.979Z,18.60
2022-11-26T11:19:28.233Z,22.57
2022-11-26T11:20:38.739Z,13.10
2022-11-26T11:21:48.070Z,24.67
2022-11-26T11:22:58.395Z,15.17
2022-11-26T11:24:09.349Z,17.03
2022-11-26T11:25:32.463Z,15.30
2022-11-26T11:26:46.174Z,19.97
2022-11-26T11:27:48.890Z,15.70
2022-11-26T11:28:55.548Z,11.70
2022-11-26T11:30:01.982Z,9.70
2022-11-26T11:31:10.949Z,10.73
2022-11-26T11:32:39.239Z,11.20
2022-11-26T11:33:41.370Z,19.07
2022-11-26T11:34:43.124Z,35.83
2022-11-26T11:35:44.846Z,38.07
2022-11-26T11:37:18.657Z,32.40
2022-11-26T11:38:25.701Z,61.63
2022-11-26T11:39:35.449Z,58.70
2022-11-26T11:40:42.307Z,38.70
2022-11-26T11:41:48.975Z,35.20
2022-11-26T11:42:54.509Z,51.83
2022-11-26T11:44:14.012Z,46.73
2022-11-26T11:45:28.845Z,26.30
2022-11-26T11:47:08.092Z,22.67
2022-11-26T11:48:15.554Z,18.97
2022-11-26T11:49:42.419Z,16.53
2022-11-26T11:50:58.231Z,23.00
2022-11-26T11:52:22.153Z,13.40
2022-11-26T11:53:42.245Z,13.10
2022-11-26T11:55:02.178Z,11.70
2022-11-26T11:56:22.240Z,15.30
2022-11-26T11:57:42.086Z,15.53
2022-11-26T11:59:05.500Z,10.63
2022-11-26T12:00:14.155Z,12.57
2022-11-26T12:01:27.816Z,8.67
2022-11-26T12:02:50.956Z,9.00
2022-11-26T12:04:10.431Z,10.23
2022-11-26T12:05:36.751Z,11.57
2022-11-26T12:06:40.146Z,10.30
2022-11-26T12:07:53.968Z,10.83
2022-11-26T12:09:24.596Z,15.73
2022-11-26T12:10:49.044Z,13.70
2022-11-26T12:12:00.779Z,7.73
2022-11-26T12:13:06.018Z,11.00
2022-11-26T12:14:17.758Z,8.03
2022-11-26T12:15:33.997Z,5.30
2022-11-26T12:16:42.502Z,9.03
2022-11-26T12:17:46.876Z,5.97
2022-11-26T12:19:09.675Z,12.37
2022-11-26T12:20:36.538Z,17.17
2022-11-26T12:21:51.543Z,10.60
2022-11-26T12:23:24.924Z,9.23
2022-11-26T12:24:54.406Z,8.90
2022-11-26T12:26:12.985Z,9.90
2022-11-26T12:27:51.474Z,18.00
2022-11-26T12:29:06.664Z,8.43
2022-11-26T12:30:17.131Z,13.13
2022-11-26T12:31:37.354Z,12.80
2022-11-26T12:32:51.012Z,9.90
2022-11-26T12:33:59.601Z,15.50
2022-11-26T12:35:12.346Z,13.57
2022-11-26T12:36:31.848Z,18.93
2022-11-26T12:37:40.478Z,8.10
2022-11-26T12:38:53.695Z,17.53
2022-11-26T12:40:29.065Z,15.10
2022-11-26T12:41:49.688Z,14.33
2022-11-26T12:43:20.621Z,14.77
2022-11-26T12:44:32.661Z,14.50
2022-11-26T12:46:11.062Z,11.70
2022-11-26T12:47:21.781Z,15.53
2022-11-26T12:48:54.761Z,7.60
2022-11-26T12:50:05.770Z,12.57
2022-11-26T12:51:25.551Z,17.60
2022-11-26T12:52:52.157Z,11.80
2022-11-26T12:54:05.877Z,13.10
2022-11-26T12:55:35.637Z,13.40
2022-11-26T12:56:59.653Z,23.87
2022-11-26T12:58:24.206Z,14.93
2022-11-26T12:59:40.930Z,14.33
2022-11-26T13:00:43.102Z,13.03
2022-11-26T13:01:44.978Z,14.40
2022-11-26T13:02:51.149Z,20.47
2022-11-26T13:04:08.476Z,13.00
2022-11-26T13:05:21.997Z,11.70
2022-11-26T13:06:35.734Z,9.07
2022-11-26T13:08:15.592Z,9.47
2022-11-26T13:09:45.143Z,13.33
2022-11-26T13:11:14.598Z,7.90
2022-11-26T13:12:29.772Z,10.00
2022-11-26T13:13:40.644Z,20.00
2022-11-26T13:14:54.299Z,13.53
2022-11-26T13:16:08.075Z,11.97
2022-11-26T13:17:16.760Z,12.07
2022-11-26T13:18:31.898Z,11.57
2022-11-26T13:19:42.025Z,12.23
2022-11-26T13:21:19.277Z,14.63
2022-11-26T13:22:48.852Z,13.03
2022-11-26T13:24:02.367Z,17.10
2022-11-26T13:25:12.885Z,10.67
2022-11-26T13:26:36.941Z,13.27
2022-11-26T13:28:00.791Z,14.90
2022-11-26T13:29:38.615Z,16.60
2022-11-26T13:31:04.429Z,18.87
2022-11-26T13:32:58.061Z,20.23
2022-11-26T13:34:33.701Z,13.80
2022-11-26T13:36:12.998Z,11.13
2022-11-26T13:37:36.130Z,14.50
2022-11-26T13:39:03.547Z,19.23
2022-11-26T13:40:37.601Z,19.20
2022-11-26T13:41:58.049Z,18.73
2022-11-26T13:43:16.943Z,20.87
2022-11-26T13:44:47.272Z,22.77
2022-11-26T13:46:03.265Z,35.17
2022-11-26T13:47:26.284Z,52.93
2022-11-26T13:48:42.745Z,29.60
2022-11-26T13:49:58.588Z,24.77
2022-11-26T13:51:32.615Z,41.17
2022-11-26T13:53:02.135Z,29.87
2022-11-26T13:54:15.871Z,25.50
2022-11-26T13:55:24.301Z,14.83
2022-11-26T13:56:32.150Z,23.67
2022-11-26T13:57:56.926Z,27.07
2022-11-26T13:59:03.257Z,21.93
2022-11-26T14:00:05.824Z,15.80
2022-11-26T14:01:28.431Z,20.37
2022-11-26T14:02:33.296Z,17.53
2022-11-26T14:03:49.155Z,20.33
2022-11-26T14:04:53.499Z,20.23
2022-11-26T14:05:57.384Z,18.53
2022-11-26T14:07:04.809Z,16.13
2022-11-26T14:08:37.526Z,40.55
2022-11-26T14:09:42.195Z,22.83
2022-11-26T14:10:43.903Z,28.87
2022-11-26T14:11:45.482Z,18.48
2022-11-26T14:13:02.691Z,26.20
2022-11-26T14:14:26.190Z,40.13
2022-11-26T14:15:42.983Z,27.55
2022-11-26T14:17:02.984Z,25.52
2022-11-26T14:18:05.271Z,20.02
2022-11-26T14:19:06.932Z,40.78
2022-11-26T14:20:09.397Z,31.35
2022-11-26T14:21:12.911Z,26.30
2022-11-26T14:22:20.703Z,35.92
2022-11-26T14:23:44.647Z,25.77
2022-11-26T14:24:49.414Z,46.95
2022-11-26T14:25:51.080Z,31.70
2022-11-26T14:26:53.249Z,22.70
2022-11-26T14:27:55.811Z,20.45
2022-11-26T14:29:18.035Z,25.95
2022-11-26T14:30:22.475Z,26.33
2022-11-26T14:31:32.538Z,19.95